Time;durP1;ratioP1;P1;durP2;ratioP2;P2;SDS_P1;SDS_P2;PMS_P1;PMS_P2;Temp;Humidity;BMP_temperature;BMP_pressure;BME280_temperature;BME280_humidity;BME280_pressure;Samples;Min_cycle;Max_cycle;Signal;HPM_P1;HPM_P2
2023/12/14 16:19:10;;;;;;;19.55;12.93;;;;;;;5.89;100.00;99506.75;1764430;79;28317;-88
2023/12/14 16:22:17;;;;;;;17.07;12.23;;;;;;;6.43;100.00;99490.04;1731056;81;21351;-87
2023/12/14 16:25:23;;;;;;;19.30;11.85;;;;;;;6.50;98.50;99501.94;1731058;83;21299;-86
2023/12/14 16:28:29;;;;;;;20.35;12.05;;;;;;;5.92;98.87;99496.08;1729844;81;21298;-90
2023/12/14 16:31:37;;;;;;;21.57;13.38;;;;;;;6.44;98.42;99488.17;1730749;83;21331;-91
2023/12/14 16:34:43;;;;;;;18.35;12.80;;;;;;;6.70;96.72;99483.41;1729973;83;21298;-89
2023/12/14 16:37:50;;;;;;;20.02;13.65;;;;;;;6.94;95.37;99483.88;1730712;81;21306;-87
2023/12/14 16:40:59;;;;;;;23.83;13.15;;;;;;;7.11;94.77;99489.63;1729883;83;21323;-89
2023/12/14 16:44:06;;;;;;;18.45;11.93;;;;;;;7.04;94.18;99503.56;1730099;81;21873;-90
2023/12/14 16:47:14;;;;;;;19.82;11.78;;;;;;;7.20;94.55;99512.22;1731142;81;21318;-90
2023/12/14 16:50:20;;;;;;;20.37;12.75;;;;;;;5.87;97.86;99497.91;1731065;83;21271;-89
2023/12/14 16:53:28;;;;;;;21.93;11.83;;;;;;;5.76;100.00;99500.09;1730591;81;21640;-90
2023/12/14 16:56:55;;;;;;;20.52;12.78;;;;;;;5.69;100.00;99503.95;1729690;83;21200;-90
2023/12/14 17:00:00;;;;;;;20.27;12.15;;;;;;;6.73;100.00;99481.72;1730943;83;21287;-91
2023/12/14 17:03:07;;;;;;;17.40;11.10;;;;;;;6.57;98.90;99487.16;1729800;81;21333;-91
2023/12/14 17:06:15;;;;;;;15.03;10.30;;;;;;;6.30;99.79;99488.33;1731157;83;21290;-91
2023/12/14 17:09:27;;;;;;;17.75;10.00;;;;;;;6.22;100.00;99474.77;1728197;83;22198;-89
2023/12/14 17:12:33;;;;;;;14.73;10.65;;;;;;;6.05;100.00;99463.03;1730820;81;21361;-90
2023/12/14 17:15:40;;;;;;;18.30;11.10;;;;;;;6.84;98.92;99428.34;1731468;83;21288;-84
2023/12/14 17:18:47;;;;;;;19.75;11.03;;;;;;;6.86;96.48;99427.64;1730116;81;21334;-87
2023/12/14 17:21:53;;;;;;;16.82;11.18;;;;;;;7.16;94.76;99411.08;1730001;83;21334;-90
2023/12/14 17:25:00;;;;;;;16.12;10.18;;;;;;;6.94;97.07;99410.48;1730853;83;21287;-87
2023/12/14 17:28:07;;;;;;;17.23;10.63;;;;;;;7.42;93.77;99418.09;1730434;81;21890;-90
2023/12/14 17:31:15;;;;;;;14.65;10.53;;;;;;;7.72;92.13;99431.38;1730923;83;21282;-88
2023/12/14 17:34:22;;;;;;;19.12;11.38;;;;;;;7.60;91.90;99432.80;1731184;81;21287;-88
2023/12/14 17:37:33;;;;;;;16.15;10.65;;;;;;;7.58;91.78;99428.91;1748101;82;21355;-88
2023/12/14 17:40:41;;;;;;;22.62;11.65;;;;;;;7.56;90.76;99435.02;1723176;83;21290;-88
2023/12/14 17:43:48;;;;;;;26.05;11.93;;;;;;;7.72;92.15;99428.66;1748533;82;21330;-89
2023/12/14 17:46:47;;;;;;;20.82;12.30;;;;;;;6.83;91.33;99439.41;1723016;83;21307;-89
2023/12/14 17:49:40;;;;;;;17.77;10.90;;;;;;;6.59;95.77;99441.14;1748416;82;21315;-89
2023/12/14 17:52:48;;;;;;;20.10;11.63;;;;;;;6.90;94.60;99448.03;1702638;82;21657;-89
2023/12/14 17:55:56;;;;;;;24.63;12.43;;;;;;;6.89;95.05;99480.32;1749694;82;21318;-89
2023/12/14 17:59:03;;;;;;;20.75;11.80;;;;;;;6.85;94.80;99483.05;1721908;82;21326;-89
2023/12/14 18:02:10;;;;;;;17.77;11.00;;;;;;;7.23;93.41;99466.97;1749856;82;21874;-88
2023/12/14 18:05:17;;;;;;;22.75;14.70;;;;;;;7.65;91.12;99448.08;1723163;83;21319;-88
2023/12/14 18:08:25;;;;;;;20.45;12.98;;;;;;;6.57;94.35;99458.63;1728149;82;21204;-89
2023/12/14 18:11:31;;;;;;;25.20;13.80;;;;;;;6.97;95.21;99447.36;1723037;83;21351;-90
2023/12/14 18:14:38;;;;;;;33.65;14.90;;;;;;;6.91;94.70;99445.64;1749524;82;21314;-90
2023/12/14 18:17:44;;;;;;;23.00;13.43;;;;;;;6.94;94.76;99413.19;1723110;82;21326;-90
2023/12/14 18:20:49;;;;;;;24.40;14.85;;;;;;;7.52;93.24;99436.92;1747865;81;21319;-89
2023/12/14 18:23:56;;;;;;;28.25;15.70;;;;;;;7.06;94.10;99448.52;1723562;82;21350;-90
2023/12/14 18:27:02;;;;;;;28.50;15.95;;;;;;;7.06;94.43;99431.36;1749798;82;21283;-90
2023/12/14 18:30:11;;;;;;;26.45;17.12;;;;;;;7.23;93.89;99443.00;1723465;83;21312;-90
2023/12/14 18:33:19;;;;;;;30.77;16.57;;;;;;;7.06;94.38;99447.16;1749502;82;21318;-90
2023/12/14 18:36:27;;;;;;;35.48;17.62;;;;;;;6.90;95.17;99453.47;1703197;83;21919;-90
2023/12/14 18:39:31;;;;;;;34.78;18.37;;;;;;;7.45;92.31;99458.56;1749848;82;21315;-90
2023/12/14 18:42:41;;;;;;;30.63;18.37;;;;;;;6.95;92.73;99442.58;1723734;82;21310;-89
2023/12/14 18:45:47;;;;;;;29.80;18.32;;;;;;;7.08;93.91;99446.97;1749969;82;21824;-90
2023/12/14 18:48:56;;;;;;;28.95;17.55;;;;;;;7.11;94.11;99446.63;1723501;82;21261;-90
2023/12/14 18:52:03;;;;;;;32.38;18.07;;;;;;;7.07;95.00;99442.56;1749523;82;21275;-90
2023/12/14 18:55:11;;;;;;;34.08;19.00;;;;;;;6.88;95.55;99441.93;1723511;83;21296;-90
2023/12/14 18:58:18;;;;;;;35.38;19.45;;;;;;;6.74;96.08;99436.36;1749893;82;21311;-90
2023/12/14 19:01:25;;;;;;;35.05;18.77;;;;;;;6.98;96.07;99417.78;1723650;83;21809;-90
2023/12/14 19:04:31;;;;;;;34.08;19.35;;;;;;;7.16;95.34;99435.55;1749850;82;21327;-90
2023/12/14 19:07:38;;;;;;;34.95;18.95;;;;;;;6.91;96.20;99436.13;1723415;82;21307;-90
2023/12/14 19:10:46;;;;;;;29.60;18.10;;;;;;;7.13;96.25;99452.73;1749769;82;21335;-89
2023/12/14 19:13:52;;;;;;;32.15;18.80;;;;;;;7.09;95.21;99440.50;1723365;82;21390;-90
2023/12/14 19:17:00;;;;;;;30.45;20.55;;;;;;;7.31;95.23;99460.15;1750021;82;21283;-90
2023/12/14 19:33:04;;;;;;;32.70;18.02;;;;;;;7.46;97.21;99430.32;1764575;79;28696;-87
2023/12/14 19:36:14;;;;;;;30.35;17.73;;;;;;;7.40;95.55;99431.88;1711081;82;21323;-89
2023/12/14 19:39:21;;;;;;;39.05;20.23;;;;;;;7.41;95.01;99428.13;1736393;82;21326;-89
2023/12/14 19:42:30;;;;;;;39.30;20.08;;;;;;;7.54;93.83;99414.48;1732290;81;21306;-88
2023/12/14 19:45:37;;;;;;;35.23;19.80;;;;;;;7.72;93.71;99419.14;1733461;83;21283;-89
2023/12/14 19:48:44;;;;;;;35.15;19.37;;;;;;;7.84;92.72;99412.75;1733027;83;21283;-90
2023/12/14 21:12:23;;;;;;;40.92;20.90;;;;;;;8.67;93.27;99456.38;1747807;80;21363;-91
2023/12/14 21:15:29;;;;;;;44.93;21.27;;;;;;;8.80;92.71;99451.67;1744894;80;21868;-91
2023/12/14 21:18:35;;;;;;;43.60;20.15;;;;;;;8.87;92.31;99438.97;1775387;79;21294;-88
2023/12/14 21:21:41;;;;;;;41.37;20.55;;;;;;;9.08;91.34;99411.45;1762159;79;22353;-88
2023/12/14 21:24:48;;;;;;;34.23;20.80;;;;;;;8.93;90.13;99416.91;1785976;79;21304;-88
2023/12/14 21:27:56;;;;;;;37.60;20.00;;;;;;;8.98;91.27;99436.28;1775032;79;21300;-90
2023/12/14 21:31:04;;;;;;;35.48;20.08;;;;;;;8.74;92.12;99451.02;1784512;79;21295;-92
2023/12/14 21:34:11;;;;;;;42.65;20.30;;;;;;;8.63;93.10;99459.66;1786303;79;21674;-89
2023/12/14 21:37:16;;;;;;;37.70;17.98;;;;;;;8.80;92.02;99481.66;1779797;78;21274;-91
2023/12/14 21:40:23;;;;;;;36.20;18.32;;;;;;;8.93;92.52;99478.28;1776895;79;21279;-90
2023/12/14 21:43:29;;;;;;;29.70;17.50;;;;;;;8.82;91.77;99480.11;1763541;79;21800;-87
2023/12/14 21:46:35;;;;;;;35.30;19.02;;;;;;;8.63;93.63;99480.11;1776601;79;21322;-87
2023/12/14 21:49:42;;;;;;;38.10;19.15;;;;;;;8.68;94.44;99470.34;1780763;79;21274;-86
2023/12/14 21:52:48;;;;;;;36.93;17.80;;;;;;;8.94;93.17;99463.11;1782884;79;21838;-87
2023/12/14 21:55:54;;;;;;;26.82;16.57;;;;;;;9.05;93.00;99467.77;1784789;79;21437;-87
2023/12/14 21:59:01;;;;;;;31.70;17.65;;;;;;;9.25;91.67;99470.27;1782927;79;21382;-87
2023/12/14 22:02:08;;;;;;;34.43;18.42;;;;;;;9.58;90.86;99469.34;1782990;79;21342;-90
2023/12/14 22:05:15;;;;;;;27.37;16.15;;;;;;;9.61;90.24;99470.86;1773413;79;21350;-91
2023/12/14 22:08:22;;;;;;;31.20;15.88;;;;;;;9.60;90.03;99462.35;1789211;79;21276;-90
2023/12/14 22:11:28;;;;;;;24.95;16.00;;;;;;;9.42;91.08;99466.31;1786583;79;21295;-88
2023/12/14 22:14:35;;;;;;;31.35;16.48;;;;;;;9.43;91.16;99456.23;1775788;79;21829;-90
2023/12/14 22:17:41;;;;;;;30.43;16.65;;;;;;;9.64;90.99;99447.25;1771887;79;21251;-88
2023/12/14 22:20:48;;;;;;;26.65;15.03;;;;;;;9.85;90.21;99443.22;1778365;78;21314;-87
2023/12/14 22:23:55;;;;;;;27.52;15.38;;;;;;;9.77;89.81;99436.50;1731253;80;21351;-89
2023/12/14 22:27:01;;;;;;;26.68;15.18;;;;;;;10.05;88.69;99426.19;1709152;83;21343;-88
2023/12/14 22:30:08;;;;;;;27.75;14.33;;;;;;;10.18;88.05;99429.06;1710105;82;21855;-88
2023/12/14 22:33:16;;;;;;;24.90;13.88;;;;;;;10.06;88.96;99425.14;1689769;83;21323;-88
2023/12/14 22:36:23;;;;;;;28.17;14.58;;;;;;;10.06;88.45;99421.05;1733468;82;21319;-91
2023/12/14 22:39:29;;;;;;;24.27;13.78;;;;;;;10.61;86.79;99427.69;1776691;78;21310;-91
2023/12/14 22:42:35;;;;;;;27.73;14.10;;;;;;;10.62;85.44;99438.95;1774435;78;21289;-91
2023/12/14 22:45:41;;;;;;;26.30;13.93;;;;;;;10.78;85.11;99440.04;1767123;80;21370;-87
2023/12/14 22:48:48;;;;;;;28.17;15.78;;;;;;;10.78;85.61;99437.30;1772378;79;21333;-87
2023/12/14 22:51:55;;;;;;;30.72;16.20;;;;;;;10.76;85.25;99435.27;1774882;79;21349;-91
2023/12/14 22:55:00;;;;;;;28.90;15.48;;;;;;;10.64;85.14;99442.34;1776523;79;21334;-90
2023/12/14 22:58:07;;;;;;;35.90;17.62;;;;;;;10.51;86.24;99437.60;1778077;80;21562;-90
2023/12/14 23:01:13;;;;;;;24.60;15.45;;;;;;;10.58;85.79;99440.38;1767832;79;21318;-88
2023/12/14 23:04:20;;;;;;;27.98;15.23;;;;;;;10.97;84.50;99449.44;1767000;79;21731;-89
2023/12/14 23:07:48;;;;;;;29.63;15.88;;;;;;;10.89;84.53;99451.80;1705315;79;21287;-89
2023/12/14 23:10:57;;;;;;;36.95;17.52;;;;;;;10.90;85.39;99463.05;1753441;81;21912;-88
2023/12/14 23:14:03;;;;;;;30.92;15.75;;;;;;;11.07;84.15;99454.55;1762006;80;21279;-88
2023/12/14 23:17:10;;;;;;;28.10;16.73;;;;;;;11.52;82.08;99455.33;1753779;80;21308;-89
2023/12/14 23:20:17;;;;;;;33.63;17.37;;;;;;;11.04;83.46;99444.00;1736750;81;21340;-88
2023/12/14 23:23:23;;;;;;;32.98;18.55;;;;;;;10.73;85.37;99454.31;1761191;81;21331;-88
2023/12/14 23:26:30;;;;;;;30.80;18.20;;;;;;;10.66;85.75;99454.77;1768622;80;21311;-91
2023/12/14 23:29:37;;;;;;;27.02;16.37;;;;;;;10.74;85.28;99454.63;1753494;80;21880;-91
2023/12/14 23:32:42;;;;;;;31.73;14.83;;;;;;;10.91;85.03;99451.58;1761729;81;21288;-88
2023/12/14 23:35:49;;;;;;;24.55;14.50;;;;;;;11.02;84.42;99443.37;1722764;82;21323;-90
2023/12/14 23:38:55;;;;;;;22.90;12.73;;;;;;;10.80;85.50;99455.72;1728612;82;21307;-87
2023/12/14 23:42:02;;;;;;;24.63;11.93;;;;;;;10.74;86.14;99469.67;1694519;84;21323;-90
2023/12/14 23:45:08;;;;;;;25.17;12.70;;;;;;;11.15;84.86;99463.95;1678865;84;21315;-90
2023/12/14 23:48:14;;;;;;;21.50;12.68;;;;;;;11.17;84.51;99466.83;1741832;80;21307;-90
2023/12/14 23:51:20;;;;;;;25.45;13.00;;;;;;;11.05;84.48;99467.05;1747411;80;21303;-90
2023/12/14 23:54:26;;;;;;;22.73;13.15;;;;;;;11.07;85.10;99466.87;1740803;80;21993;-90
2023/12/14 23:57:33;;;;;;;20.27;12.45;;;;;;;11.00;85.85;99473.12;1749122;80;21341;-89
